VSP1914 DGAA-GOBD
Flight info
| Callsign | VSP1914 |
|---|---|
| Flight time | 2h 48m |
| Altitude | 24000 |
| Route | MIMTI1D MIMTI B600 TEMBI/N0459F340 UB600 ONESI/N0455F360 UB600 AD UR979 ERIDI ERIDI1A |
| Aircraft | A306/H-SDE3FGHIRWY/LB1 |
Departure
| Time | 2026-05-08 16:00 |
|---|---|
| Airport | Kotoka International Airport (DGAA) |
Arrival
| Time | 2026-05-08 18:48 |
|---|---|
| Airport | Blaise Diagne International Airport (GOBD) |
| Time | Latitude | Longitude | Altitude | Speed | Heading |
|---|---|---|---|---|---|
| 2026-05-08 15:21 | 5.59879 | -0.17302 | 217 ft | 0 kts | 292° |
| 2026-05-08 15:47 | 5.59878 | -0.17300 | 217 ft | 2 kts | 292° |
| 2026-05-08 15:47 | 5.59868 | -0.17276 | 215 ft | 4 kts | 292° |
| 2026-05-08 15:48 | 5.59842 | -0.17236 | 221 ft | 4 kts | 330° |
| 2026-05-08 15:48 | 5.59817 | -0.17228 | 212 ft | 4 kts | 2° |
| 2026-05-08 15:48 | 5.59791 | -0.17233 | 212 ft | 4 kts | 21° |
| 2026-05-08 15:49 | 5.59778 | -0.17238 | 217 ft | 2 kts | 22° |
| 2026-05-08 15:51 | 5.59794 | -0.17231 | 216 ft | 6 kts | 22° |
| 2026-05-08 15:51 | 5.59850 | -0.17208 | 217 ft | 11 kts | 22° |
| 2026-05-08 15:51 | 5.59940 | -0.17171 | 213 ft | 17 kts | 22° |
| 2026-05-08 15:52 | 5.60055 | -0.17123 | 216 ft | 17 kts | 22° |
| 2026-05-08 15:52 | 5.60148 | -0.17085 | 216 ft | 12 kts | 22° |
| 2026-05-08 15:52 | 5.60202 | -0.17063 | 218 ft | 5 kts | 22° |
| 2026-05-08 15:52 | 5.60224 | -0.17054 | 218 ft | 2 kts | 22° |
| 2026-05-08 15:53 | 5.60238 | -0.17048 | 226 ft | 3 kts | 23° |
| 2026-05-08 15:53 | 5.60266 | -0.17036 | 218 ft | 5 kts | 24° |
| 2026-05-08 15:53 | 5.60307 | -0.17019 | 226 ft | 7 kts | 21° |
| 2026-05-08 15:53 | 5.60357 | -0.16999 | 225 ft | 9 kts | 22° |
| 2026-05-08 15:54 | 5.60417 | -0.16974 | 226 ft | 10 kts | 22° |
| 2026-05-08 15:54 | 5.60490 | -0.16945 | 226 ft | 12 kts | 23° |
| 2026-05-08 15:54 | 5.60570 | -0.16910 | 227 ft | 14 kts | 23° |
| 2026-05-08 15:54 | 5.60666 | -0.16872 | 227 ft | 17 kts | 21° |
| 2026-05-08 15:55 | 5.60783 | -0.16821 | 228 ft | 20 kts | 21° |
| 2026-05-08 15:55 | 5.61011 | -0.16729 | 228 ft | 16 kts | 22° |
| 2026-05-08 15:55 | 5.61108 | -0.16689 | 227 ft | 15 kts | 22° |
| 2026-05-08 15:56 | 5.61200 | -0.16651 | 226 ft | 14 kts | 22° |
| 2026-05-08 15:56 | 5.61289 | -0.16614 | 226 ft | 14 kts | 22° |
| 2026-05-08 15:56 | 5.61386 | -0.16574 | 229 ft | 16 kts | 22° |
| 2026-05-08 15:56 | 5.61499 | -0.16526 | 221 ft | 19 kts | 22° |
| 2026-05-08 15:57 | 5.61568 | -0.16454 | 218 ft | 0 kts | 78° |
| 2026-05-08 15:57 | 5.61568 | -0.16453 | 218 ft | 1 kts | 79° |
| 2026-05-08 15:57 | 5.61569 | -0.16427 | 223 ft | 6 kts | 92° |
| 2026-05-08 15:58 | 5.61552 | -0.16377 | 220 ft | 9 kts | 116° |
| 2026-05-08 15:58 | 5.61528 | -0.16328 | 221 ft | 5 kts | 123° |
| 2026-05-08 15:58 | 5.61518 | -0.16320 | 222 ft | 1 kts | 143° |
| 2026-05-08 15:58 | 5.61512 | -0.16320 | 222 ft | 1 kts | 174° |
| 2026-05-08 15:59 | 5.61487 | -0.16329 | 223 ft | 11 kts | 198° |
| 2026-05-08 15:59 | 5.61218 | -0.16439 | 226 ft | 78 kts | 203° |
| 2026-05-08 15:59 | 5.60511 | -0.16722 | 226 ft | 139 kts | 203° |
| 2026-05-08 15:59 | 5.59437 | -0.17166 | 250 ft | 192 kts | 200° |
| 2026-05-08 16:00 | 5.58177 | -0.17757 | 998 ft | 201 kts | 203° |
| 2026-05-08 16:00 | 5.56939 | -0.18330 | 2139 ft | 195 kts | 197° |
| 2026-05-08 16:00 | 5.55618 | -0.18840 | 2797 ft | 212 kts | 197° |
| 2026-05-08 16:00 | 5.54209 | -0.19395 | 3560 ft | 228 kts | 205° |
| 2026-05-08 16:01 | 5.52812 | -0.20245 | 4285 ft | 245 kts | 219° |
| 2026-05-08 16:01 | 5.51729 | -0.21637 | 4891 ft | 264 kts | 243° |
| 2026-05-08 16:01 | 5.51114 | -0.23402 | 5757 ft | 270 kts | 254° |
| 2026-05-08 16:01 | 5.50664 | -0.25261 | 6602 ft | 277 kts | 256° |
| 2026-05-08 16:02 | 5.50251 | -0.27162 | 7449 ft | 282 kts | 257° |
| 2026-05-08 16:02 | 5.49806 | -0.29109 | 8376 ft | 287 kts | 256° |
| 2026-05-08 16:02 | 5.49499 | -0.31088 | 9254 ft | 291 kts | 266° |
| 2026-05-08 16:02 | 5.49445 | -0.33140 | 9962 ft | 298 kts | 270° |
| 2026-05-08 16:03 | 5.49440 | -0.35291 | 10417 ft | 320 kts | 271° |
| 2026-05-08 16:03 | 5.49440 | -0.37598 | 10702 ft | 339 kts | 271° |
| 2026-05-08 16:03 | 5.49448 | -0.40063 | 10988 ft | 363 kts | 270° |
| 2026-05-08 16:03 | 5.49397 | -0.42658 | 11276 ft | 380 kts | 270° |
| 2026-05-08 16:04 | 5.49366 | -0.45365 | 11509 ft | 395 kts | 270° |
| 2026-05-08 16:04 | 5.49330 | -0.48176 | 11803 ft | 409 kts | 270° |
| 2026-05-08 16:04 | 5.49288 | -0.51067 | 12236 ft | 417 kts | 270° |
| 2026-05-08 16:04 | 5.49243 | -0.53952 | 12720 ft | 420 kts | 270° |
| 2026-05-08 16:05 | 5.49180 | -0.56893 | 13246 ft | 424 kts | 270° |
| 2026-05-08 16:05 | 5.49126 | -0.59865 | 13920 ft | 425 kts | 270° |
| 2026-05-08 16:05 | 5.49100 | -0.62837 | 14463 ft | 427 kts | 271° |
| 2026-05-08 16:05 | 5.49133 | -0.65823 | 15017 ft | 429 kts | 274° |
| 2026-05-08 16:06 | 5.49372 | -0.68808 | 15581 ft | 429 kts | 277° |
| 2026-05-08 16:06 | 5.49667 | -0.71799 | 16099 ft | 432 kts | 277° |
| 2026-05-08 16:06 | 5.49968 | -0.74806 | 16622 ft | 434 kts | 277° |
| 2026-05-08 16:06 | 5.50267 | -0.77828 | 17150 ft | 436 kts | 276° |
| 2026-05-08 16:07 | 5.50578 | -0.80863 | 17697 ft | 437 kts | 277° |
| 2026-05-08 16:07 | 5.50882 | -0.83918 | 18208 ft | 440 kts | 276° |
| 2026-05-08 16:07 | 5.51172 | -0.86988 | 18674 ft | 442 kts | 276° |
| 2026-05-08 16:07 | 5.51467 | -0.90064 | 18998 ft | 444 kts | 276° |
| 2026-05-08 16:08 | 5.51777 | -0.93164 | 19310 ft | 449 kts | 276° |
| 2026-05-08 16:08 | 5.52072 | -0.96287 | 19640 ft | 452 kts | 276° |
| 2026-05-08 16:08 | 5.52374 | -0.99439 | 20018 ft | 454 kts | 276° |
| 2026-05-08 16:08 | 5.52679 | -1.02599 | 20384 ft | 456 kts | 276° |
| 2026-05-08 16:09 | 5.52986 | -1.05783 | 20709 ft | 458 kts | 276° |
| 2026-05-08 16:09 | 5.53189 | -1.07898 | 20918 ft | 460 kts | 276° |
| 2026-05-08 16:09 | 5.53599 | -1.12146 | 21324 ft | 463 kts | 276° |
| 2026-05-08 16:09 | 5.53817 | -1.15375 | 21614 ft | 465 kts | 270° |
| 2026-05-08 16:10 | 5.53725 | -1.18622 | 21902 ft | 465 kts | 266° |
| 2026-05-08 16:10 | 5.53429 | -1.21884 | 22132 ft | 469 kts | 263° |
| 2026-05-08 16:10 | 5.53080 | -1.25141 | 22369 ft | 470 kts | 263° |
| 2026-05-08 16:10 | 5.52734 | -1.28405 | 22653 ft | 471 kts | 263° |
| 2026-05-08 16:11 | 5.52362 | -1.31694 | 22922 ft | 474 kts | 263° |
| 2026-05-08 16:11 | 5.52010 | -1.34999 | 23219 ft | 476 kts | 263° |
| 2026-05-08 16:11 | 5.51688 | -1.38306 | 23473 ft | 478 kts | 264° |
| 2026-05-08 16:11 | 5.51383 | -1.41642 | 23693 ft | 480 kts | 264° |
| 2026-05-08 16:12 | 5.51083 | -1.44981 | 23848 ft | 480 kts | 264° |
| 2026-05-08 16:12 | 5.50789 | -1.48224 | 23860 ft | 462 kts | 264° |
| 2026-05-08 16:12 | 5.50499 | -1.51374 | 23862 ft | 445 kts | 264° |
| 2026-05-08 16:12 | 5.50210 | -1.54452 | 23868 ft | 440 kts | 264° |
| 2026-05-08 16:13 | 5.49920 | -1.57511 | 23870 ft | 440 kts | 264° |
| 2026-05-08 16:13 | 5.49630 | -1.60566 | 23869 ft | 440 kts | 264° |
| 2026-05-08 16:13 | 5.49339 | -1.63627 | 23868 ft | 441 kts | 264° |
| 2026-05-08 16:13 | 5.49048 | -1.66686 | 23862 ft | 441 kts | 264° |
| 2026-05-08 16:14 | 5.48755 | -1.69753 | 23862 ft | 440 kts | 264° |
| 2026-05-08 16:14 | 5.48468 | -1.72812 | 23863 ft | 440 kts | 264° |
| 2026-05-08 16:14 | 5.48193 | -1.75829 | 23859 ft | 439 kts | 264° |
| 2026-05-08 16:14 | 5.47920 | -1.78881 | 23862 ft | 440 kts | 264° |
| 2026-05-08 16:15 | 5.47645 | -1.81946 | 23863 ft | 440 kts | 264° |
| 2026-05-08 16:15 | 5.47370 | -1.85004 | 23857 ft | 440 kts | 264° |
| 2026-05-08 16:15 | 5.47094 | -1.88068 | 23857 ft | 440 kts | 264° |
| 2026-05-08 16:15 | 5.46816 | -1.91125 | 23862 ft | 440 kts | 264° |
| 2026-05-08 16:16 | 5.46538 | -1.94183 | 23856 ft | 440 kts | 264° |
| 2026-05-08 16:16 | 5.46260 | -1.97241 | 23856 ft | 440 kts | 264° |
| 2026-05-08 16:16 | 5.45986 | -2.00260 | 23863 ft | 440 kts | 264° |
| 2026-05-08 16:16 | 5.45708 | -2.03322 | 23863 ft | 440 kts | 264° |
| 2026-05-08 16:17 | 5.45431 | -2.06378 | 23859 ft | 439 kts | 264° |
| 2026-05-08 16:17 | 5.45247 | -2.08404 | 23862 ft | 439 kts | 264° |
| 2026-05-08 16:17 | 5.44878 | -2.12488 | 23859 ft | 439 kts | 264° |
| 2026-05-08 16:17 | 5.44599 | -2.15546 | 23862 ft | 440 kts | 264° |
| 2026-05-08 16:18 | 5.44321 | -2.18599 | 23862 ft | 440 kts | 264° |
| 2026-05-08 16:18 | 5.44041 | -2.21656 | 23863 ft | 440 kts | 264° |
| 2026-05-08 16:18 | 5.43761 | -2.24715 | 23857 ft | 440 kts | 264° |
| 2026-05-08 16:18 | 5.43481 | -2.27771 | 23861 ft | 440 kts | 264° |
| 2026-05-08 16:19 | 5.43203 | -2.30823 | 23866 ft | 440 kts | 264° |
| 2026-05-08 16:19 | 5.42924 | -2.33885 | 23873 ft | 440 kts | 264° |
| 2026-05-08 16:19 | 5.42645 | -2.36943 | 23883 ft | 439 kts | 264° |
| 2026-05-08 16:19 | 5.42370 | -2.39959 | 23891 ft | 439 kts | 264° |
| 2026-05-08 16:20 | 5.42093 | -2.43009 | 23897 ft | 439 kts | 264° |
| 2026-05-08 16:20 | 5.41814 | -2.46067 | 23897 ft | 439 kts | 264° |
| 2026-05-08 16:20 | 5.41533 | -2.49118 | 23897 ft | 439 kts | 264° |
| 2026-05-08 16:20 | 5.41253 | -2.52167 | 23897 ft | 439 kts | 264° |
| 2026-05-08 16:21 | 5.40971 | -2.55223 | 23893 ft | 439 kts | 264° |
| 2026-05-08 16:21 | 5.40688 | -2.58283 | 23889 ft | 439 kts | 264° |
| 2026-05-08 16:21 | 5.40407 | -2.61331 | 23887 ft | 439 kts | 264° |
| 2026-05-08 16:21 | 5.40122 | -2.64394 | 23889 ft | 440 kts | 264° |
| 2026-05-08 16:22 | 5.39838 | -2.67451 | 23888 ft | 440 kts | 264° |
| 2026-05-08 16:22 | 5.39652 | -2.69469 | 23889 ft | 439 kts | 264° |
| 2026-05-08 16:22 | 5.39272 | -2.73547 | 23884 ft | 439 kts | 264° |
| 2026-05-08 16:22 | 5.39014 | -2.76546 | 23885 ft | 437 kts | 264° |
| 2026-05-08 16:23 | 5.38741 | -2.79589 | 23888 ft | 438 kts | 264° |
| 2026-05-08 16:23 | 5.38459 | -2.82636 | 23887 ft | 438 kts | 264° |
| 2026-05-08 16:23 | 5.38174 | -2.85677 | 23880 ft | 438 kts | 264° |
| 2026-05-08 16:23 | 5.37890 | -2.88726 | 23879 ft | 438 kts | 264° |
| 2026-05-08 16:24 | 5.37607 | -2.91778 | 23879 ft | 438 kts | 264° |
| 2026-05-08 16:24 | 5.37325 | -2.94821 | 23878 ft | 438 kts | 264° |
| 2026-05-08 16:24 | 5.37042 | -2.97870 | 23879 ft | 438 kts | 264° |
| 2026-05-08 16:24 | 5.36759 | -3.00915 | 23879 ft | 438 kts | 264° |
| 2026-05-08 16:25 | 5.36475 | -3.03961 | 23879 ft | 438 kts | 264° |
| 2026-05-08 16:25 | 5.36192 | -3.07014 | 23877 ft | 438 kts | 264° |
| 2026-05-08 16:25 | 5.35910 | -3.10052 | 23871 ft | 438 kts | 264° |
| 2026-05-08 16:25 | 5.35629 | -3.13090 | 23869 ft | 437 kts | 264° |
| 2026-05-08 16:26 | 5.35347 | -3.16128 | 23869 ft | 437 kts | 264° |
| 2026-05-08 16:26 | 5.35066 | -3.19170 | 23869 ft | 437 kts | 264° |
| 2026-05-08 16:26 | 5.34784 | -3.22209 | 23869 ft | 437 kts | 264° |
| 2026-05-08 16:26 | 5.34499 | -3.25245 | 23869 ft | 437 kts | 264° |
| 2026-05-08 16:27 | 5.34216 | -3.28282 | 23870 ft | 437 kts | 264° |
| 2026-05-08 16:27 | 5.33933 | -3.31316 | 23870 ft | 437 kts | 264° |
| 2026-05-08 16:27 | 5.33653 | -3.34314 | 23868 ft | 437 kts | 264° |
| 2026-05-08 16:27 | 5.33371 | -3.37346 | 23867 ft | 437 kts | 264° |
| 2026-05-08 16:28 | 5.33073 | -3.40366 | 23851 ft | 435 kts | 264° |
| 2026-05-08 16:28 | 5.32788 | -3.43388 | 23860 ft | 436 kts | 264° |
| 2026-05-08 16:28 | 5.32510 | -3.46416 | 23856 ft | 436 kts | 264° |
| 2026-05-08 16:28 | 5.32327 | -3.48427 | 23859 ft | 436 kts | 264° |
| 2026-05-08 16:29 | 5.32052 | -3.51459 | 23862 ft | 436 kts | 264° |
| 2026-05-08 16:29 | 5.31773 | -3.54494 | 23862 ft | 436 kts | 264° |
| 2026-05-08 16:29 | 5.31492 | -3.57522 | 23863 ft | 436 kts | 264° |
| 2026-05-08 16:29 | 5.31207 | -3.60555 | 23860 ft | 436 kts | 264° |
| 2026-05-08 16:30 | 5.30923 | -3.63580 | 23862 ft | 435 kts | 264° |
| 2026-05-08 16:30 | 5.30639 | -3.66603 | 23862 ft | 436 kts | 264° |
| 2026-05-08 16:30 | 5.30357 | -3.69630 | 23862 ft | 435 kts | 264° |
| 2026-05-08 16:30 | 5.30074 | -3.72658 | 23862 ft | 435 kts | 264° |
| 2026-05-08 16:31 | 5.29790 | -3.75682 | 23859 ft | 435 kts | 264° |
| 2026-05-08 16:31 | 5.29505 | -3.78704 | 23854 ft | 435 kts | 264° |
| 2026-05-08 16:31 | 5.29220 | -3.81726 | 23862 ft | 435 kts | 264° |
| 2026-05-08 16:31 | 5.28936 | -3.84748 | 23856 ft | 435 kts | 264° |
| 2026-05-08 16:32 | 5.28711 | -3.87782 | 23854 ft | 435 kts | 269° |
| 2026-05-08 16:32 | 5.29001 | -3.90761 | 23849 ft | 423 kts | 282° |
| 2026-05-08 16:32 | 5.29942 | -3.93517 | 23855 ft | 413 kts | 297° |
| 2026-05-08 16:32 | 5.31372 | -3.95993 | 23859 ft | 408 kts | 303° |
| 2026-05-08 16:33 | 5.32923 | -3.98297 | 23855 ft | 400 kts | 306° |
| 2026-05-08 16:33 | 5.34545 | -4.00528 | 23994 ft | 391 kts | 307° |
| 2026-05-08 16:33 | 5.36184 | -4.02716 | 24210 ft | 396 kts | 308° |
| 2026-05-08 16:33 | 5.37867 | -4.04949 | 24427 ft | 407 kts | 308° |
| 2026-05-08 16:34 | 5.39594 | -4.07255 | 24648 ft | 418 kts | 307° |
| 2026-05-08 16:34 | 5.41348 | -4.09618 | 24867 ft | 427 kts | 307° |
| 2026-05-08 16:34 | 5.43131 | -4.12045 | 25061 ft | 436 kts | 307° |
| 2026-05-08 16:34 | 5.44946 | -4.14529 | 25240 ft | 445 kts | 307° |
| 2026-05-08 16:35 | 5.46787 | -4.17055 | 25409 ft | 452 kts | 307° |
| 2026-05-08 16:35 | 5.48654 | -4.19620 | 25566 ft | 459 kts | 307° |
| 2026-05-08 16:35 | 5.50551 | -4.22227 | 25707 ft | 465 kts | 307° |
| 2026-05-08 16:35 | 5.52469 | -4.24862 | 25838 ft | 471 kts | 307° |
| 2026-05-08 16:36 | 5.54408 | -4.27529 | 25942 ft | 476 kts | 307° |
| 2026-05-08 16:36 | 5.56369 | -4.30225 | 26036 ft | 480 kts | 307° |
| 2026-05-08 16:36 | 5.58349 | -4.32949 | 26141 ft | 484 kts | 307° |
| 2026-05-08 16:36 | 5.60344 | -4.35691 | 26278 ft | 487 kts | 307° |
| 2026-05-08 16:37 | 5.62347 | -4.38440 | 26455 ft | 489 kts | 307° |
| 2026-05-08 16:37 | 5.64337 | -4.41166 | 26646 ft | 490 kts | 307° |
| 2026-05-08 16:37 | 5.66352 | -4.43927 | 26864 ft | 491 kts | 307° |
| 2026-05-08 16:37 | 5.68367 | -4.46697 | 27034 ft | 492 kts | 307° |
| 2026-05-08 16:38 | 5.70388 | -4.49478 | 27189 ft | 493 kts | 307° |
| 2026-05-08 16:38 | 5.72416 | -4.52268 | 27349 ft | 495 kts | 307° |
| 2026-05-08 16:38 | 5.74446 | -4.55066 | 27529 ft | 495 kts | 307° |
| 2026-05-08 16:38 | 5.76480 | -4.57866 | 27691 ft | 496 kts | 307° |
| 2026-05-08 16:39 | 5.78527 | -4.60680 | 27824 ft | 498 kts | 307° |
| 2026-05-08 16:39 | 5.80576 | -4.63497 | 27993 ft | 499 kts | 307° |
| 2026-05-08 16:39 | 5.82629 | -4.66324 | 28170 ft | 500 kts | 307° |
| 2026-05-08 16:39 | 5.84677 | -4.69142 | 28416 ft | 499 kts | 307° |
| 2026-05-08 16:40 | 5.86723 | -4.71958 | 28667 ft | 498 kts | 307° |
| 2026-05-08 16:40 | 5.88758 | -4.74759 | 28902 ft | 497 kts | 307° |
| 2026-05-08 16:40 | 5.90777 | -4.77533 | 29157 ft | 496 kts | 307° |
| 2026-05-08 16:40 | 5.92807 | -4.80326 | 29459 ft | 496 kts | 307° |
| 2026-05-08 16:41 | 5.94846 | -4.83130 | 29708 ft | 497 kts | 307° |
| 2026-05-08 16:41 | 5.96885 | -4.85938 | 30084 ft | 494 kts | 307° |
| 2026-05-08 16:41 | 5.98902 | -4.88718 | 30395 ft | 492 kts | 307° |
| 2026-05-08 16:42 | 6.02941 | -4.94285 | 31037 ft | 490 kts | 307° |
| 2026-05-08 16:42 | 6.04942 | -4.97043 | 31359 ft | 488 kts | 307° |
| 2026-05-08 16:42 | 6.06941 | -4.99798 | 31615 ft | 487 kts | 307° |
| 2026-05-08 16:42 | 6.08937 | -5.02552 | 31878 ft | 487 kts | 307° |
| 2026-05-08 16:43 | 6.10907 | -5.05271 | 32154 ft | 486 kts | 307° |
| 2026-05-08 16:43 | 6.12896 | -5.08012 | 32428 ft | 485 kts | 307° |
| 2026-05-08 16:43 | 6.14882 | -5.10750 | 32685 ft | 484 kts | 307° |
| 2026-05-08 16:43 | 6.16867 | -5.13489 | 32942 ft | 484 kts | 307° |
| 2026-05-08 16:44 | 6.18846 | -5.16218 | 33198 ft | 483 kts | 307° |
| 2026-05-08 16:44 | 6.20828 | -5.18950 | 33453 ft | 483 kts | 307° |
| 2026-05-08 16:44 | 6.22802 | -5.21672 | 33721 ft | 482 kts | 307° |
| 2026-05-08 16:44 | 6.24776 | -5.24395 | 33990 ft | 481 kts | 307° |
| 2026-05-08 16:45 | 6.26742 | -5.27108 | 34259 ft | 480 kts | 307° |
| 2026-05-08 16:45 | 6.28709 | -5.29824 | 34487 ft | 480 kts | 307° |
| 2026-05-08 16:45 | 6.30672 | -5.32535 | 34712 ft | 480 kts | 307° |
| 2026-05-08 16:45 | 6.32635 | -5.35244 | 34946 ft | 480 kts | 307° |
| 2026-05-08 16:46 | 6.34601 | -5.37960 | 35177 ft | 479 kts | 307° |
| 2026-05-08 16:46 | 6.36562 | -5.40670 | 35406 ft | 479 kts | 307° |
| 2026-05-08 16:46 | 6.38520 | -5.43383 | 35641 ft | 479 kts | 307° |
| 2026-05-08 16:46 | 6.40454 | -5.46058 | 35834 ft | 480 kts | 307° |
| 2026-05-08 16:47 | 6.42407 | -5.48757 | 35865 ft | 472 kts | 307° |
| 2026-05-08 16:47 | 6.46205 | -5.54009 | 35861 ft | 459 kts | 307° |
| 2026-05-08 16:48 | 6.49957 | -5.59202 | 35872 ft | 458 kts | 307° |
| 2026-05-08 16:48 | 6.53712 | -5.64391 | 35862 ft | 458 kts | 307° |
| 2026-05-08 16:49 | 6.57462 | -5.69574 | 35871 ft | 459 kts | 307° |
| 2026-05-08 16:49 | 6.61215 | -5.74765 | 35860 ft | 458 kts | 307° |
| 2026-05-08 16:50 | 6.64966 | -5.79953 | 35879 ft | 458 kts | 307° |
| 2026-05-08 16:50 | 6.68687 | -5.85103 | 35879 ft | 458 kts | 307° |
| 2026-05-08 16:51 | 6.72438 | -5.90300 | 35876 ft | 458 kts | 307° |
| 2026-05-08 16:51 | 6.76173 | -5.95491 | 35873 ft | 457 kts | 306° |
| 2026-05-08 16:52 | 6.79806 | -6.00689 | 35862 ft | 457 kts | 306° |
| 2026-05-08 16:52 | 6.83435 | -6.05947 | 35852 ft | 457 kts | 306° |
| 2026-05-08 16:53 | 6.88878 | -6.13816 | 35859 ft | 456 kts | 306° |
| 2026-05-08 16:53 | 6.92509 | -6.19056 | 35864 ft | 456 kts | 306° |
| 2026-05-08 16:54 | 6.96142 | -6.24288 | 35861 ft | 456 kts | 306° |
| 2026-05-08 16:54 | 6.99770 | -6.29520 | 35854 ft | 456 kts | 306° |
| 2026-05-08 16:55 | 7.03400 | -6.34760 | 35855 ft | 455 kts | 306° |
| 2026-05-08 16:55 | 7.07022 | -6.39985 | 35851 ft | 455 kts | 306° |
| 2026-05-08 16:56 | 7.10624 | -6.45192 | 35865 ft | 455 kts | 306° |
| 2026-05-08 16:56 | 7.14240 | -6.50417 | 35867 ft | 455 kts | 306° |
| 2026-05-08 16:57 | 7.17855 | -6.55641 | 35857 ft | 454 kts | 306° |
| 2026-05-08 16:57 | 7.21479 | -6.60877 | 35859 ft | 455 kts | 306° |
| 2026-05-08 16:58 | 7.25089 | -6.66098 | 35849 ft | 454 kts | 306° |
| 2026-05-08 16:58 | 7.28698 | -6.71315 | 35852 ft | 454 kts | 306° |
| 2026-05-08 16:59 | 7.32307 | -6.76534 | 35878 ft | 454 kts | 306° |
| 2026-05-08 16:59 | 7.35916 | -6.81756 | 35865 ft | 454 kts | 306° |
| 2026-05-08 17:00 | 7.39514 | -6.86966 | 35863 ft | 454 kts | 306° |
| 2026-05-08 17:00 | 7.43120 | -6.92194 | 35860 ft | 454 kts | 306° |
| 2026-05-08 17:01 | 7.46721 | -6.97421 | 35878 ft | 454 kts | 306° |
| 2026-05-08 17:01 | 7.50331 | -7.02654 | 35860 ft | 455 kts | 306° |
| 2026-05-08 17:02 | 7.53939 | -7.07883 | 35863 ft | 455 kts | 306° |
| 2026-05-08 17:02 | 7.57527 | -7.13087 | 35862 ft | 455 kts | 306° |
| 2026-05-08 17:03 | 7.61161 | -7.18352 | 35875 ft | 455 kts | 306° |
| 2026-05-08 17:03 | 7.64753 | -7.23561 | 35867 ft | 455 kts | 306° |
| 2026-05-08 17:04 | 7.68363 | -7.28805 | 35859 ft | 455 kts | 306° |
| 2026-05-08 17:04 | 7.71986 | -7.34068 | 35878 ft | 456 kts | 306° |
| 2026-05-08 17:05 | 7.75604 | -7.39322 | 35859 ft | 456 kts | 306° |
| 2026-05-08 17:05 | 7.79220 | -7.44577 | 35880 ft | 456 kts | 306° |
| 2026-05-08 17:06 | 7.82832 | -7.49833 | 35860 ft | 456 kts | 306° |
| 2026-05-08 17:06 | 7.86430 | -7.55062 | 35870 ft | 456 kts | 306° |
| 2026-05-08 17:07 | 7.90049 | -7.60321 | 35868 ft | 456 kts | 306° |
| 2026-05-08 17:07 | 7.93662 | -7.65578 | 35868 ft | 456 kts | 306° |
| 2026-05-08 17:08 | 7.97279 | -7.70847 | 35860 ft | 456 kts | 305° |
| 2026-05-08 17:08 | 8.00891 | -7.76110 | 35870 ft | 456 kts | 305° |
| 2026-05-08 17:09 | 8.04507 | -7.81379 | 35859 ft | 457 kts | 305° |
| 2026-05-08 17:09 | 8.08124 | -7.86651 | 35858 ft | 457 kts | 305° |
| 2026-05-08 17:10 | 8.11747 | -7.91931 | 35864 ft | 457 kts | 305° |
| 2026-05-08 17:10 | 8.15358 | -7.97198 | 35863 ft | 457 kts | 305° |
| 2026-05-08 17:11 | 8.18956 | -8.02445 | 35855 ft | 457 kts | 305° |
| 2026-05-08 17:11 | 8.22576 | -8.07727 | 35855 ft | 457 kts | 305° |
| 2026-05-08 17:12 | 8.26185 | -8.13004 | 35868 ft | 457 kts | 305° |
| 2026-05-08 17:12 | 8.29803 | -8.18288 | 35852 ft | 457 kts | 305° |
| 2026-05-08 17:13 | 8.33412 | -8.23557 | 35858 ft | 456 kts | 305° |
| 2026-05-08 17:13 | 8.37019 | -8.28830 | 35869 ft | 456 kts | 305° |
| 2026-05-08 17:14 | 8.40019 | -8.33212 | 35869 ft | 456 kts | 305° |
| 2026-05-08 17:14 | 8.43630 | -8.38481 | 35859 ft | 455 kts | 305° |
| 2026-05-08 17:15 | 8.47823 | -8.44596 | 35865 ft | 455 kts | 305° |
| 2026-05-08 17:15 | 8.50841 | -8.48993 | 35868 ft | 455 kts | 305° |
| 2026-05-08 17:16 | 8.54440 | -8.54252 | 35857 ft | 454 kts | 305° |
| 2026-05-08 17:16 | 8.58033 | -8.59507 | 35862 ft | 454 kts | 305° |
| 2026-05-08 17:17 | 8.61602 | -8.64721 | 35858 ft | 454 kts | 305° |
| 2026-05-08 17:17 | 8.65189 | -8.69963 | 35868 ft | 453 kts | 305° |
| 2026-05-08 17:18 | 8.68766 | -8.75198 | 35859 ft | 452 kts | 305° |
| 2026-05-08 17:18 | 8.72345 | -8.80435 | 35861 ft | 453 kts | 305° |
| 2026-05-08 17:19 | 8.75916 | -8.85676 | 35847 ft | 453 kts | 305° |
| 2026-05-08 17:19 | 8.79494 | -8.90913 | 35851 ft | 452 kts | 304° |
| 2026-05-08 17:20 | 8.82484 | -8.95288 | 35845 ft | 452 kts | 305° |
| 2026-05-08 17:20 | 8.86034 | -9.00482 | 35857 ft | 452 kts | 304° |
| 2026-05-08 17:21 | 8.89596 | -9.05706 | 35844 ft | 451 kts | 304° |
| 2026-05-08 17:21 | 8.93162 | -9.10932 | 35853 ft | 451 kts | 304° |
| 2026-05-08 17:22 | 8.96721 | -9.16159 | 35858 ft | 451 kts | 304° |
| 2026-05-08 17:22 | 9.00278 | -9.21383 | 35850 ft | 451 kts | 304° |
| 2026-05-08 17:23 | 9.03833 | -9.26605 | 35856 ft | 450 kts | 304° |
| 2026-05-08 17:23 | 9.07426 | -9.31751 | 35857 ft | 450 kts | 306° |
| 2026-05-08 17:24 | 9.11121 | -9.36857 | 35846 ft | 449 kts | 306° |
| 2026-05-08 17:24 | 9.14822 | -9.41958 | 35850 ft | 450 kts | 306° |
| 2026-05-08 17:25 | 9.18512 | -9.47065 | 35857 ft | 449 kts | 306° |
| 2026-05-08 17:25 | 9.22193 | -9.52173 | 35845 ft | 449 kts | 306° |
| 2026-05-08 17:26 | 9.25870 | -9.57285 | 35844 ft | 448 kts | 306° |
| 2026-05-08 17:26 | 9.29536 | -9.62391 | 35855 ft | 448 kts | 306° |
| 2026-05-08 17:27 | 9.33199 | -9.67493 | 35853 ft | 448 kts | 306° |
| 2026-05-08 17:27 | 9.36843 | -9.72554 | 35851 ft | 447 kts | 306° |
| 2026-05-08 17:28 | 9.40509 | -9.77642 | 35858 ft | 447 kts | 306° |
| 2026-05-08 17:28 | 9.44167 | -9.82734 | 35854 ft | 446 kts | 306° |
| 2026-05-08 17:29 | 9.47815 | -9.87817 | 35866 ft | 446 kts | 305° |
| 2026-05-08 17:29 | 9.51463 | -9.92901 | 35863 ft | 446 kts | 305° |
| 2026-05-08 17:30 | 9.55108 | -9.97982 | 35868 ft | 445 kts | 305° |
| 2026-05-08 17:30 | 9.58750 | -10.03056 | 35866 ft | 445 kts | 305° |
| 2026-05-08 17:31 | 9.62388 | -10.08138 | 35859 ft | 445 kts | 305° |
| 2026-05-08 17:31 | 9.66017 | -10.13224 | 35846 ft | 445 kts | 305° |
| 2026-05-08 17:32 | 9.69638 | -10.18304 | 35845 ft | 445 kts | 305° |
| 2026-05-08 17:32 | 9.73263 | -10.23391 | 35847 ft | 445 kts | 305° |
| 2026-05-08 17:33 | 9.76888 | -10.28481 | 35844 ft | 445 kts | 305° |
| 2026-05-08 17:33 | 9.80482 | -10.33534 | 35843 ft | 445 kts | 305° |
| 2026-05-08 17:34 | 9.84109 | -10.38622 | 35857 ft | 445 kts | 305° |
| 2026-05-08 17:34 | 9.87737 | -10.43711 | 35849 ft | 445 kts | 305° |
| 2026-05-08 17:35 | 9.91364 | -10.48803 | 35848 ft | 445 kts | 305° |
| 2026-05-08 17:35 | 9.94990 | -10.53898 | 35857 ft | 445 kts | 305° |
| 2026-05-08 17:36 | 9.98611 | -10.58997 | 35844 ft | 445 kts | 305° |
| 2026-05-08 17:36 | 10.02229 | -10.64088 | 35856 ft | 445 kts | 304° |
| 2026-05-08 17:37 | 10.05842 | -10.69177 | 35847 ft | 444 kts | 304° |
| 2026-05-08 17:37 | 10.09408 | -10.74245 | 35851 ft | 445 kts | 303° |
| 2026-05-08 17:38 | 10.12727 | -10.79547 | 35853 ft | 444 kts | 300° |
| 2026-05-08 17:38 | 10.15917 | -10.84912 | 35854 ft | 444 kts | 300° |
| 2026-05-08 17:39 | 10.19123 | -10.90275 | 35854 ft | 444 kts | 300° |
| 2026-05-08 17:39 | 10.22352 | -10.95623 | 35859 ft | 444 kts | 300° |
| 2026-05-08 17:40 | 10.25733 | -11.00870 | 35870 ft | 445 kts | 305° |
| 2026-05-08 17:40 | 10.29458 | -11.05890 | 35846 ft | 445 kts | 306° |
| 2026-05-08 17:41 | 10.33243 | -11.10874 | 35858 ft | 445 kts | 306° |
| 2026-05-08 17:41 | 10.37008 | -11.15819 | 35844 ft | 445 kts | 306° |
| 2026-05-08 17:42 | 10.40794 | -11.20800 | 35850 ft | 445 kts | 306° |
| 2026-05-08 17:42 | 10.44571 | -11.25783 | 35853 ft | 445 kts | 306° |
| 2026-05-08 17:43 | 10.48349 | -11.30773 | 35856 ft | 445 kts | 306° |
| 2026-05-08 17:43 | 10.52129 | -11.35765 | 35850 ft | 446 kts | 306° |
| 2026-05-08 17:44 | 10.55910 | -11.40758 | 35851 ft | 446 kts | 306° |
| 2026-05-08 17:44 | 10.59671 | -11.45729 | 35851 ft | 446 kts | 306° |
| 2026-05-08 17:45 | 10.63451 | -11.50731 | 35845 ft | 446 kts | 306° |
| 2026-05-08 17:45 | 10.67221 | -11.55740 | 35846 ft | 446 kts | 305° |
| 2026-05-08 17:46 | 10.70892 | -11.60820 | 35839 ft | 445 kts | 304° |
| 2026-05-08 17:46 | 10.74527 | -11.65927 | 35835 ft | 446 kts | 304° |
| 2026-05-08 17:47 | 10.78175 | -11.71039 | 35839 ft | 446 kts | 304° |
| 2026-05-08 17:47 | 10.81205 | -11.75281 | 35840 ft | 446 kts | 304° |
| 2026-05-08 17:48 | 10.85450 | -11.81213 | 35844 ft | 446 kts | 304° |
| 2026-05-08 17:48 | 10.89098 | -11.86312 | 35842 ft | 446 kts | 304° |
| 2026-05-08 17:49 | 10.92750 | -11.91423 | 35835 ft | 446 kts | 304° |
| 2026-05-08 17:49 | 10.96398 | -11.96531 | 35839 ft | 446 kts | 304° |
| 2026-05-08 17:50 | 11.00054 | -12.01647 | 35841 ft | 447 kts | 304° |
| 2026-05-08 17:50 | 11.03713 | -12.06774 | 35839 ft | 447 kts | 304° |
| 2026-05-08 17:51 | 11.07374 | -12.11905 | 35836 ft | 447 kts | 304° |
| 2026-05-08 17:51 | 11.11006 | -12.17005 | 35837 ft | 448 kts | 304° |
| 2026-05-08 17:52 | 11.14667 | -12.22141 | 35839 ft | 447 kts | 304° |
| 2026-05-08 17:53 | 11.20148 | -12.29841 | 35843 ft | 448 kts | 304° |
| 2026-05-08 17:53 | 11.23807 | -12.34977 | 35844 ft | 448 kts | 304° |
| 2026-05-08 17:54 | 11.27424 | -12.40150 | 35839 ft | 448 kts | 303° |
| 2026-05-08 17:54 | 11.30973 | -12.45364 | 35843 ft | 447 kts | 302° |
| 2026-05-08 17:55 | 11.34514 | -12.50578 | 35838 ft | 448 kts | 303° |
| 2026-05-08 17:55 | 11.38073 | -12.55800 | 35842 ft | 448 kts | 303° |
| 2026-05-08 17:56 | 11.41632 | -12.61017 | 35837 ft | 448 kts | 303° |
| 2026-05-08 17:56 | 11.45169 | -12.66203 | 35842 ft | 448 kts | 303° |
| 2026-05-08 17:57 | 11.48722 | -12.71417 | 35845 ft | 447 kts | 302° |
| 2026-05-08 17:57 | 11.52272 | -12.76628 | 35840 ft | 448 kts | 302° |
| 2026-05-08 17:58 | 11.55821 | -12.81844 | 35840 ft | 448 kts | 303° |
| 2026-05-08 17:58 | 11.59373 | -12.87068 | 35835 ft | 448 kts | 303° |
| 2026-05-08 17:59 | 11.62922 | -12.92284 | 35833 ft | 448 kts | 302° |
| 2026-05-08 17:59 | 11.66469 | -12.97498 | 35835 ft | 448 kts | 302° |
| 2026-05-08 18:00 | 11.69421 | -13.01837 | 35834 ft | 447 kts | 302° |
| 2026-05-08 18:00 | 11.75308 | -13.10513 | 35834 ft | 447 kts | 302° |
| 2026-05-08 18:01 | 11.78878 | -13.15719 | 35829 ft | 447 kts | 304° |
| 2026-05-08 18:01 | 11.82747 | -13.20709 | 35834 ft | 448 kts | 307° |
| 2026-05-08 18:02 | 11.86050 | -13.24788 | 35834 ft | 448 kts | 307° |
| 2026-05-08 18:02 | 11.90008 | -13.29697 | 35831 ft | 448 kts | 307° |
| 2026-05-08 18:03 | 11.93945 | -13.34635 | 35835 ft | 448 kts | 307° |
| 2026-05-08 18:03 | 11.97864 | -13.39583 | 35833 ft | 447 kts | 306° |
| 2026-05-08 18:04 | 12.01777 | -13.44525 | 35833 ft | 447 kts | 306° |
| 2026-05-08 18:04 | 12.05668 | -13.49436 | 35834 ft | 448 kts | 306° |
| 2026-05-08 18:05 | 12.09589 | -13.54385 | 35828 ft | 447 kts | 306° |
| 2026-05-08 18:05 | 12.13503 | -13.59330 | 35831 ft | 448 kts | 306° |
| 2026-05-08 18:06 | 12.17422 | -13.64286 | 35834 ft | 448 kts | 306° |
| 2026-05-08 18:06 | 12.21336 | -13.69233 | 35833 ft | 447 kts | 306° |
| 2026-05-08 18:07 | 12.25246 | -13.74182 | 35833 ft | 447 kts | 306° |
| 2026-05-08 18:07 | 12.29010 | -13.79242 | 35822 ft | 446 kts | 303° |
| 2026-05-08 18:08 | 12.32535 | -13.84461 | 35822 ft | 446 kts | 302° |
| 2026-05-08 18:08 | 12.36012 | -13.89668 | 35824 ft | 446 kts | 302° |
| 2026-05-08 18:09 | 12.39535 | -13.94890 | 35816 ft | 446 kts | 302° |
| 2026-05-08 18:09 | 12.43064 | -14.00086 | 35812 ft | 442 kts | 302° |
| 2026-05-08 18:10 | 12.46570 | -14.05243 | 35812 ft | 441 kts | 302° |
| 2026-05-08 18:10 | 12.50071 | -14.10397 | 35813 ft | 441 kts | 302° |
| 2026-05-08 18:11 | 12.53568 | -14.15551 | 35814 ft | 441 kts | 302° |
| 2026-05-08 18:11 | 12.57064 | -14.20704 | 35813 ft | 441 kts | 302° |
| 2026-05-08 18:12 | 12.60536 | -14.25828 | 35813 ft | 441 kts | 302° |
| 2026-05-08 18:12 | 12.64029 | -14.30986 | 35814 ft | 441 kts | 302° |
| 2026-05-08 18:13 | 12.67521 | -14.36145 | 35813 ft | 440 kts | 302° |
| 2026-05-08 18:13 | 12.71021 | -14.41310 | 35813 ft | 441 kts | 302° |
| 2026-05-08 18:14 | 12.74521 | -14.46480 | 35807 ft | 441 kts | 302° |
| 2026-05-08 18:14 | 12.77986 | -14.51613 | 35809 ft | 441 kts | 301° |
| 2026-05-08 18:15 | 12.81477 | -14.56780 | 35804 ft | 440 kts | 301° |
| 2026-05-08 18:15 | 12.84962 | -14.61943 | 35805 ft | 441 kts | 301° |
| 2026-05-08 18:16 | 12.88456 | -14.67123 | 35802 ft | 441 kts | 301° |
| 2026-05-08 18:16 | 12.91939 | -14.72291 | 35806 ft | 441 kts | 301° |
| 2026-05-08 18:17 | 12.95424 | -14.77460 | 35807 ft | 441 kts | 301° |
| 2026-05-08 18:17 | 12.98909 | -14.82628 | 35803 ft | 440 kts | 301° |
| 2026-05-08 18:18 | 13.02390 | -14.87800 | 35801 ft | 440 kts | 301° |
| 2026-05-08 18:18 | 13.05846 | -14.92936 | 35802 ft | 440 kts | 301° |
| 2026-05-08 18:19 | 13.09322 | -14.98106 | 35807 ft | 440 kts | 301° |
| 2026-05-08 18:19 | 13.12796 | -15.03273 | 35802 ft | 440 kts | 301° |
| 2026-05-08 18:20 | 13.16274 | -15.08448 | 35806 ft | 439 kts | 301° |
| 2026-05-08 18:20 | 13.19698 | -15.13599 | 35805 ft | 439 kts | 299° |
| 2026-05-08 18:21 | 13.22968 | -15.18881 | 35812 ft | 438 kts | 298° |
| 2026-05-08 18:21 | 13.26222 | -15.24174 | 35813 ft | 438 kts | 298° |
| 2026-05-08 18:22 | 13.29472 | -15.29459 | 35816 ft | 437 kts | 298° |
| 2026-05-08 18:22 | 13.32715 | -15.34732 | 35822 ft | 437 kts | 298° |
| 2026-05-08 18:23 | 13.35957 | -15.40000 | 35822 ft | 436 kts | 298° |
| 2026-05-08 18:23 | 13.39175 | -15.45230 | 35830 ft | 436 kts | 298° |
| 2026-05-08 18:24 | 13.42458 | -15.50578 | 35837 ft | 447 kts | 298° |
| 2026-05-08 18:24 | 13.45796 | -15.56015 | 35832 ft | 451 kts | 298° |
| 2026-05-08 18:25 | 13.49137 | -15.61457 | 35837 ft | 450 kts | 298° |
| 2026-05-08 18:25 | 13.52470 | -15.66890 | 35838 ft | 446 kts | 298° |
| 2026-05-08 18:26 | 13.55726 | -15.72196 | 35840 ft | 434 kts | 298° |
| 2026-05-08 18:26 | 13.58942 | -15.77448 | 35498 ft | 437 kts | 298° |
| 2026-05-08 18:27 | 13.60567 | -15.80106 | 34628 ft | 441 kts | 298° |
| 2026-05-08 18:27 | 13.61655 | -15.81888 | 33930 ft | 446 kts | 298° |
| 2026-05-08 18:27 | 13.63883 | -15.85535 | 32493 ft | 454 kts | 298° |
| 2026-05-08 18:27 | 13.65571 | -15.88294 | 31557 ft | 455 kts | 298° |
| 2026-05-08 18:28 | 13.67231 | -15.91004 | 30785 ft | 452 kts | 298° |
| 2026-05-08 18:28 | 13.68898 | -15.93726 | 30055 ft | 447 kts | 299° |
| 2026-05-08 18:28 | 13.70544 | -15.96417 | 29427 ft | 440 kts | 299° |
| 2026-05-08 18:28 | 13.72169 | -15.99074 | 28641 ft | 437 kts | 299° |
| 2026-05-08 18:29 | 13.73783 | -16.01716 | 27849 ft | 435 kts | 299° |
| 2026-05-08 18:29 | 13.75383 | -16.04337 | 27174 ft | 429 kts | 299° |
| 2026-05-08 18:29 | 13.76959 | -16.06920 | 26548 ft | 424 kts | 300° |
| 2026-05-08 18:29 | 13.78513 | -16.09467 | 25996 ft | 416 kts | 300° |
| 2026-05-08 18:30 | 13.80043 | -16.11975 | 25471 ft | 410 kts | 300° |
| 2026-05-08 18:30 | 13.81546 | -16.14441 | 24936 ft | 404 kts | 300° |
| 2026-05-08 18:30 | 13.83014 | -16.16850 | 24400 ft | 400 kts | 300° |
| 2026-05-08 18:30 | 13.84487 | -16.19266 | 23852 ft | 397 kts | 300° |
| 2026-05-08 18:31 | 13.85962 | -16.21688 | 23314 ft | 393 kts | 300° |
| 2026-05-08 18:31 | 13.87409 | -16.24064 | 22771 ft | 390 kts | 300° |
| 2026-05-08 18:31 | 13.88825 | -16.26391 | 22244 ft | 387 kts | 300° |
| 2026-05-08 18:31 | 13.90245 | -16.28726 | 21693 ft | 383 kts | 301° |
| 2026-05-08 18:32 | 13.91656 | -16.31048 | 21137 ft | 381 kts | 301° |
| 2026-05-08 18:32 | 13.93058 | -16.33349 | 20614 ft | 377 kts | 301° |
| 2026-05-08 18:32 | 13.94446 | -16.35633 | 20083 ft | 374 kts | 301° |
| 2026-05-08 18:32 | 13.95821 | -16.37896 | 19548 ft | 372 kts | 301° |
| 2026-05-08 18:33 | 13.97189 | -16.40146 | 19012 ft | 369 kts | 301° |
| 2026-05-08 18:33 | 13.98545 | -16.42378 | 18495 ft | 366 kts | 301° |
| 2026-05-08 18:33 | 13.99894 | -16.44598 | 17967 ft | 364 kts | 301° |
| 2026-05-08 18:33 | 14.01238 | -16.46808 | 17430 ft | 362 kts | 301° |
| 2026-05-08 18:34 | 14.02569 | -16.49001 | 16905 ft | 360 kts | 301° |
| 2026-05-08 18:34 | 14.03889 | -16.51176 | 16393 ft | 357 kts | 301° |
| 2026-05-08 18:34 | 14.05201 | -16.53338 | 15868 ft | 354 kts | 301° |
| 2026-05-08 18:34 | 14.06490 | -16.55465 | 15357 ft | 352 kts | 301° |
| 2026-05-08 18:35 | 14.07783 | -16.57596 | 14830 ft | 350 kts | 301° |
| 2026-05-08 18:35 | 14.09069 | -16.59715 | 14303 ft | 348 kts | 301° |
| 2026-05-08 18:35 | 14.10349 | -16.61825 | 13793 ft | 345 kts | 302° |
| 2026-05-08 18:35 | 14.11614 | -16.63911 | 13299 ft | 343 kts | 302° |
| 2026-05-08 18:36 | 14.12877 | -16.65994 | 12786 ft | 341 kts | 302° |
| 2026-05-08 18:36 | 14.14128 | -16.68060 | 12274 ft | 339 kts | 302° |
| 2026-05-08 18:36 | 14.15374 | -16.70120 | 11772 ft | 337 kts | 302° |
| 2026-05-08 18:36 | 14.16608 | -16.72159 | 11276 ft | 334 kts | 302° |
| 2026-05-08 18:37 | 14.17835 | -16.74185 | 10752 ft | 332 kts | 302° |
| 2026-05-08 18:37 | 14.19051 | -16.76192 | 10245 ft | 328 kts | 302° |
| 2026-05-08 18:37 | 14.20236 | -16.78148 | 10085 ft | 313 kts | 302° |
| 2026-05-08 18:37 | 14.21359 | -16.80004 | 9978 ft | 298 kts | 302° |
| 2026-05-08 18:38 | 14.22454 | -16.81813 | 9549 ft | 297 kts | 302° |
| 2026-05-08 18:38 | 14.23552 | -16.83622 | 9100 ft | 296 kts | 303° |
| 2026-05-08 18:38 | 14.24636 | -16.85407 | 8699 ft | 293 kts | 303° |
| 2026-05-08 18:38 | 14.25713 | -16.87180 | 8292 ft | 290 kts | 303° |
| 2026-05-08 18:39 | 14.26775 | -16.88933 | 7886 ft | 287 kts | 303° |
| 2026-05-08 18:39 | 14.27815 | -16.90648 | 7491 ft | 284 kts | 303° |
| 2026-05-08 18:39 | 14.28854 | -16.92367 | 7101 ft | 281 kts | 303° |
| 2026-05-08 18:39 | 14.29884 | -16.94068 | 6704 ft | 279 kts | 303° |
| 2026-05-08 18:40 | 14.30909 | -16.95761 | 6315 ft | 277 kts | 303° |
| 2026-05-08 18:40 | 14.31925 | -16.97441 | 5926 ft | 275 kts | 303° |
| 2026-05-08 18:40 | 14.32931 | -16.99103 | 5548 ft | 272 kts | 303° |
| 2026-05-08 18:40 | 14.33929 | -17.00751 | 5158 ft | 270 kts | 303° |
| 2026-05-08 18:41 | 14.34907 | -17.02363 | 5001 ft | 258 kts | 303° |
| 2026-05-08 18:41 | 14.35830 | -17.03892 | 4921 ft | 245 kts | 303° |
| 2026-05-08 18:41 | 14.36745 | -17.05361 | 4630 ft | 243 kts | 308° |
| 2026-05-08 18:41 | 14.37975 | -17.06540 | 4293 ft | 243 kts | 331° |
| 2026-05-08 18:42 | 14.39575 | -17.07030 | 3962 ft | 241 kts | 354° |
| 2026-05-08 18:42 | 14.41244 | -17.07095 | 3639 ft | 239 kts | 359° |
| 2026-05-08 18:42 | 14.42900 | -17.07090 | 3332 ft | 236 kts | 359° |
| 2026-05-08 18:42 | 14.44533 | -17.07090 | 3099 ft | 235 kts | 359° |
| 2026-05-08 18:43 | 14.46151 | -17.07101 | 3066 ft | 225 kts | 359° |
| 2026-05-08 18:43 | 14.47625 | -17.07108 | 3090 ft | 203 kts | 359° |
| 2026-05-08 18:43 | 14.48976 | -17.07116 | 3090 ft | 185 kts | 359° |
| 2026-05-08 18:43 | 14.50188 | -17.07164 | 3109 ft | 165 kts | 355° |
| 2026-05-08 18:44 | 14.51316 | -17.07201 | 3100 ft | 162 kts | 359° |
| 2026-05-08 18:44 | 14.52442 | -17.07201 | 2880 ft | 162 kts | 358° |
| 2026-05-08 18:44 | 14.53580 | -17.07210 | 2615 ft | 166 kts | 355° |
| 2026-05-08 18:44 | 14.54748 | -17.07221 | 2398 ft | 170 kts | 354° |
| 2026-05-08 18:45 | 14.55946 | -17.07228 | 2142 ft | 171 kts | 355° |
| 2026-05-08 18:45 | 14.57120 | -17.07235 | 1896 ft | 166 kts | 359° |
| 2026-05-08 18:45 | 14.58271 | -17.07241 | 1704 ft | 166 kts | 2° |
| 2026-05-08 18:45 | 14.59415 | -17.07247 | 1509 ft | 159 kts | 0° |
| 2026-05-08 18:46 | 14.60471 | -17.07253 | 1284 ft | 144 kts | 359° |
| 2026-05-08 18:46 | 14.61429 | -17.07258 | 1090 ft | 132 kts | 359° |
| 2026-05-08 18:46 | 14.62328 | -17.07262 | 926 ft | 131 kts | 1° |
| 2026-05-08 18:46 | 14.63241 | -17.07267 | 754 ft | 133 kts | 1° |
| 2026-05-08 18:47 | 14.64190 | -17.07267 | 578 ft | 137 kts | 1° |
| 2026-05-08 18:47 | 14.65141 | -17.07264 | 358 ft | 135 kts | 360° |
| 2026-05-08 18:47 | 14.66053 | -17.07273 | 267 ft | 122 kts | 360° |
| 2026-05-08 18:47 | 14.66691 | -17.07280 | 274 ft | 53 kts | 359° |
| 2026-05-08 18:48 | 14.66982 | -17.07280 | 274 ft | 27 kts | 360° |
| 2026-05-08 18:48 | 14.67076 | -17.07203 | 274 ft | 14 kts | 85° |
| 2026-05-08 18:48 | 14.67077 | -17.07153 | 273 ft | 9 kts | 90° |
| 2026-05-08 18:48 | 14.67077 | -17.07086 | 273 ft | 9 kts | 90° |
| 2026-05-08 18:49 | 14.67078 | -17.07025 | 277 ft | 3 kts | 89° |
| 2026-05-08 18:49 | 14.67078 | -17.07020 | 277 ft | 0 kts | 89° |
| 2026-05-08 18:49 | 14.67078 | -17.06994 | 277 ft | 6 kts | 89° |
| 2026-05-08 18:49 | 14.67079 | -17.06932 | 278 ft | 9 kts | 89° |
| 2026-05-08 18:50 | 14.67079 | -17.06872 | 278 ft | 4 kts | 90° |
| 2026-05-08 18:50 | 14.67079 | -17.06870 | 278 ft | 0 kts | 90° |
| 2026-05-08 18:50 | 14.67079 | -17.06867 | 278 ft | 0 kts | 90° |
| 2026-05-08 18:50 | 14.67079 | -17.06860 | 278 ft | 2 kts | 90° |
| 2026-05-08 18:51 | 14.67079 | -17.06859 | 278 ft | 0 kts | 90° |